Time;durP1;ratioP1;P1;durP2;ratioP2;P2;SDS_P1;SDS_P2;PMS_P1;PMS_P2;Temp;Humidity;BMP_temperature;BMP_pressure;BME280_temperature;BME280_humidity;BME280_pressure;Samples;Min_cycle;Max_cycle;Signal;HPM_P1;HPM_P2
2022/04/03 00:02:06;;;;;;;17.27;13.85;;;5.70;99.90;;;;;;5064997;28;20045;-78
2022/04/03 00:04:33;;;;;;;18.75;14.25;;;5.60;99.90;;;;;;5080690;28;20056;-77
2022/04/03 00:07:02;;;;;;;26.85;18.02;;;5.60;99.90;;;;;;5063909;28;20044;-79
2022/04/03 00:09:30;;;;;;;23.30;15.95;;;5.60;99.90;;;;;;5063098;28;20041;-77
2022/04/03 00:11:58;;;;;;;23.98;16.52;;;5.60;99.90;;;;;;5061999;28;20045;-80
2022/04/03 00:14:25;;;;;;;23.20;16.40;;;5.60;99.90;;;;;;5080640;28;20048;-78
2022/04/03 00:16:53;;;;;;;25.77;17.70;;;5.60;99.90;;;;;;5079630;28;20131;-78
2022/04/03 00:19:21;;;;;;;21.70;15.43;;;5.60;99.90;;;;;;5079928;28;20029;-78
2022/04/03 00:21:49;;;;;;;23.15;16.70;;;5.70;99.90;;;;;;5080546;28;20055;-78
2022/04/03 00:24:18;;;;;;;22.55;15.05;;;5.70;99.90;;;;;;5079518;28;20400;-79
2022/04/03 00:26:45;;;;;;;21.00;15.50;;;5.80;99.90;;;;;;5063940;28;20041;-79
2022/04/03 00:29:13;;;;;;;22.63;16.92;;;5.70;99.90;;;;;;5061749;28;20059;-79
2022/04/03 00:31:40;;;;;;;26.10;17.30;;;5.70;99.90;;;;;;5080204;28;20131;-78
2022/04/03 00:34:08;;;;;;;33.05;21.70;;;5.80;99.90;;;;;;5083609;28;20111;-79
2022/04/03 00:36:35;;;;;;;25.98;18.27;;;5.80;99.90;;;;;;5084994;28;20123;-78
2022/04/03 00:39:04;;;;;;;23.45;17.05;;;5.80;99.90;;;;;;5090541;28;20096;-77
2022/04/03 00:41:33;;;;;;;18.90;14.57;;;5.90;99.90;;;;;;5071167;28;20072;-76
2022/04/03 00:44:00;;;;;;;18.88;14.05;;;5.90;99.90;;;;;;5078760;28;20135;-76
2022/04/03 00:46:29;;;;;;;16.15;13.05;;;6.00;99.90;;;;;;5084447;28;20052;-77
2022/04/03 00:48:59;;;;;;;20.20;12.80;;;6.00;99.90;;;;;;5080132;28;20124;-77
2022/04/03 00:51:27;;;;;;;16.58;13.00;;;6.00;99.90;;;;;;5060720;28;20040;-76
2022/04/03 00:53:55;;;;;;;17.95;14.18;;;5.90;99.90;;;;;;5078808;28;20112;-78
2022/04/03 00:56:22;;;;;;;17.77;12.55;;;5.90;99.90;;;;;;5060112;28;20048;-77
2022/04/03 00:58:53;;;;;;;14.77;11.65;;;5.90;99.90;;;;;;5078198;28;20037;-78
2022/04/03 01:01:21;;;;;;;18.35;13.38;;;5.90;99.90;;;;;;5078316;28;20488;-78
2022/04/03 01:03:49;;;;;;;17.58;11.82;;;5.90;99.90;;;;;;5077263;28;20048;-78
2022/04/03 01:06:17;;;;;;;16.17;12.23;;;5.80;99.90;;;;;;5092798;28;20055;-78
2022/04/03 01:08:45;;;;;;;40.67;25.75;;;5.80;99.90;;;;;;5077242;28;20549;-79
2022/04/03 01:11:14;;;;;;;17.73;11.70;;;5.80;99.90;;;;;;5059615;28;20044;-78
2022/04/03 01:13:47;;;;;;;15.55;11.98;;;5.80;99.90;;;;;;5058771;28;20044;-78
2022/04/03 01:16:16;;;;;;;14.95;11.55;;;6.00;99.90;;;;;;5076664;28;20040;-78
2022/04/03 01:18:44;;;;;;;14.52;10.73;;;6.00;99.90;;;;;;5077454;28;20051;-78
2022/04/03 01:21:11;;;;;;;18.35;11.00;;;6.00;99.90;;;;;;5092412;28;20048;-78
2022/04/03 01:23:40;;;;;;;14.23;10.43;;;6.00;99.90;;;;;;5092736;28;20055;-79
2022/04/03 01:26:09;;;;;;;16.48;11.48;;;5.90;99.90;;;;;;5078077;28;20101;-78
2022/04/03 01:28:37;;;;;;;12.98;10.63;;;6.00;99.90;;;;;;5077821;28;20090;-77
2022/04/03 01:31:05;;;;;;;14.00;10.50;;;6.00;99.90;;;;;;5077370;28;20045;-78
2022/04/03 01:33:33;;;;;;;13.68;9.90;;;5.90;99.90;;;;;;5075806;28;20048;-77
2022/04/03 01:36:00;;;;;;;13.25;10.15;;;5.90;99.90;;;;;;5092612;28;20052;-79
2022/04/03 01:38:28;;;;;;;11.85;9.38;;;5.90;99.90;;;;;;5077133;28;20071;-78
2022/04/03 01:40:56;;;;;;;13.88;9.85;;;5.90;99.90;;;;;;5091205;28;20147;-78
2022/04/03 01:43:25;;;;;;;13.77;9.52;;;5.80;99.90;;;;;;5091638;28;20128;-79
2022/04/03 01:45:52;;;;;;;14.90;10.65;;;5.70;99.90;;;;;;5076046;28;20068;-78
2022/04/03 01:48:21;;;;;;;14.45;9.85;;;5.70;99.90;;;;;;5057820;28;20513;-79
2022/04/03 01:50:49;;;;;;;13.07;9.43;;;5.60;99.90;;;;;;5079050;28;20052;-79
2022/04/03 01:53:17;;;;;;;13.30;10.15;;;5.60;99.90;;;;;;5061119;28;20045;-77
2022/04/03 01:55:45;;;;;;;14.88;9.88;;;5.60;99.90;;;;;;5058948;28;20139;-78
2022/04/03 01:58:13;;;;;;;13.52;10.18;;;5.60;99.90;;;;;;5077065;28;20044;-77
2022/04/03 02:00:42;;;;;;;13.68;10.27;;;5.60;99.90;;;;;;5058040;28;20132;-77
2022/04/03 02:03:10;;;;;;;13.07;9.93;;;5.50;99.90;;;;;;5091997;28;20049;-76
2022/04/03 02:05:38;;;;;;;13.52;10.65;;;5.50;99.90;;;;;;5058250;28;20052;-78
2022/04/03 02:08:07;;;;;;;13.60;10.10;;;5.50;99.90;;;;;;5075885;28;20052;-77
2022/04/03 02:10:34;;;;;;;15.10;10.63;;;5.40;99.90;;;;;;5057653;28;20040;-77
2022/04/03 02:13:02;;;;;;;13.68;10.57;;;5.50;99.90;;;;;;5075861;28;20098;-77
2022/04/03 02:15:30;;;;;;;14.38;10.52;;;5.50;99.90;;;;;;5057822;28;20097;-79
2022/04/03 02:17:59;;;;;;;12.88;10.20;;;5.60;99.90;;;;;;5076708;28;20048;-77
2022/04/03 02:20:27;;;;;;;13.43;10.60;;;5.50;99.90;;;;;;5075789;28;20050;-77
2022/04/03 02:22:55;;;;;;;14.55;10.20;;;5.50;99.90;;;;;;5076000;28;20049;-77
2022/04/03 02:25:22;;;;;;;12.57;10.30;;;5.50;99.90;;;;;;5075690;28;20484;-77
2022/04/03 02:27:51;;;;;;;14.25;10.32;;;5.50;99.90;;;;;;5075212;28;20048;-78
2022/04/03 02:30:19;;;;;;;18.33;10.65;;;5.50;99.90;;;;;;5075624;28;20062;-78
2022/04/03 02:32:47;;;;;;;14.32;10.82;;;5.40;99.90;;;;;;5075067;28;20044;-78
2022/04/03 02:35:17;;;;;;;12.82;10.10;;;5.30;99.90;;;;;;5056360;28;20098;-77
2022/04/03 02:37:45;;;;;;;12.85;10.32;;;5.40;99.90;;;;;;5074920;28;20036;-78
2022/04/03 02:40:16;;;;;;;14.23;10.73;;;5.40;99.90;;;;;;5056823;28;20040;-78
2022/04/03 02:42:44;;;;;;;16.33;11.88;;;5.40;99.90;;;;;;5074343;28;20071;-77
2022/04/03 02:45:13;;;;;;;15.93;11.50;;;5.40;99.90;;;;;;5076202;28;20072;-78
2022/04/03 02:47:41;;;;;;;17.10;12.05;;;5.40;99.90;;;;;;5057626;28;20068;-77
2022/04/03 02:50:09;;;;;;;16.35;12.73;;;5.40;99.90;;;;;;5057824;28;20040;-77
2022/04/03 02:52:38;;;;;;;19.20;13.27;;;5.50;99.90;;;;;;5076272;28;20037;-77
2022/04/03 02:55:06;;;;;;;15.98;12.63;;;5.50;99.90;;;;;;5093291;28;20060;-78
2022/04/03 02:57:34;;;;;;;19.38;13.52;;;5.50;99.90;;;;;;5093010;28;20108;-77
2022/04/03 03:00:02;;;;;;;20.40;13.95;;;5.60;99.90;;;;;;5068645;28;20491;-78
2022/04/03 03:02:30;;;;;;;17.52;13.32;;;5.60;99.90;;;;;;5075349;28;20569;-80
2022/04/03 03:04:57;;;;;;;20.05;14.40;;;5.50;99.90;;;;;;5074794;28;20040;-78
2022/04/03 03:07:25;;;;;;;21.52;14.77;;;5.60;99.90;;;;;;5057260;28;20044;-78
2022/04/03 03:09:54;;;;;;;21.75;14.88;;;5.60;99.90;;;;;;5057510;28;20040;-77
2022/04/03 03:12:22;;;;;;;18.80;14.27;;;5.60;99.90;;;;;;5057934;28;20048;-78
2022/04/03 03:14:49;;;;;;;22.45;15.93;;;5.60;99.90;;;;;;5074817;28;20044;-77
2022/04/03 03:17:17;;;;;;;17.67;13.90;;;5.60;99.90;;;;;;5074718;28;20044;-79
2022/04/03 03:19:45;;;;;;;21.63;14.38;;;5.50;99.90;;;;;;5074498;28;20043;-77
2022/04/03 03:22:12;;;;;;;16.80;13.57;;;5.50;99.90;;;;;;5057420;28;20049;-78
2022/04/03 03:24:40;;;;;;;18.50;14.32;;;5.40;99.90;;;;;;5076554;28;20120;-78
2022/04/03 03:27:09;;;;;;;19.02;14.23;;;5.40;99.90;;;;;;5057278;28;20051;-78
2022/04/03 03:29:37;;;;;;;17.70;13.07;;;5.40;99.90;;;;;;5057722;28;20041;-78
2022/04/03 03:32:05;;;;;;;17.00;12.57;;;5.30;99.90;;;;;;5077058;28;20036;-77
2022/04/03 03:34:34;;;;;;;17.45;13.27;;;5.40;99.90;;;;;;5075858;28;20461;-78
2022/04/03 03:37:03;;;;;;;17.67;13.05;;;5.40;99.90;;;;;;5075215;28;20127;-78
2022/04/03 03:39:31;;;;;;;16.63;12.35;;;5.40;99.90;;;;;;5076924;28;20052;-77
2022/04/03 03:41:58;;;;;;;17.55;12.77;;;5.50;99.90;;;;;;5058482;28;20057;-79
2022/04/03 03:44:27;;;;;;;16.08;12.68;;;5.50;99.90;;;;;;5091815;28;20045;-79
2022/04/03 03:46:55;;;;;;;18.05;13.30;;;5.50;99.90;;;;;;5075003;28;20048;-78
2022/04/03 03:49:23;;;;;;;16.95;13.27;;;5.40;99.90;;;;;;5075513;28;20525;-77
2022/04/03 03:51:51;;;;;;;20.23;14.10;;;5.50;99.90;;;;;;5057386;28;20064;-78
2022/04/03 03:54:19;;;;;;;17.65;13.30;;;5.40;99.90;;;;;;5057718;28;20549;-79
2022/04/03 03:56:47;;;;;;;17.58;13.57;;;5.40;99.90;;;;;;5075152;28;20126;-78
2022/04/03 03:59:14;;;;;;;18.83;13.70;;;5.30;99.90;;;;;;5094417;28;20380;-78
2022/04/03 04:01:44;;;;;;;20.15;14.63;;;5.30;99.90;;;;;;5060049;28;20074;-78
2022/04/03 04:04:11;;;;;;;19.15;14.95;;;5.10;99.90;;;;;;5078532;28;20060;-78
2022/04/03 04:06:39;;;;;;;18.85;15.05;;;5.10;99.90;;;;;;5079182;28;20041;-79
2022/04/03 04:09:07;;;;;;;19.08;14.48;;;5.10;99.90;;;;;;5079430;28;20119;-78
2022/04/03 04:11:34;;;;;;;18.67;14.88;;;5.20;99.90;;;;;;5079271;28;20052;-78
2022/04/03 04:14:02;;;;;;;19.42;14.07;;;5.20;99.90;;;;;;5079036;28;20071;-78
2022/04/03 04:16:30;;;;;;;19.60;14.80;;;5.30;99.90;;;;;;5079577;28;20077;-78
2022/04/03 04:18:59;;;;;;;20.50;14.63;;;5.20;99.90;;;;;;5084209;28;20048;-78
2022/04/03 04:21:26;;;;;;;23.85;15.70;;;5.20;99.90;;;;;;5069784;28;20110;-78
2022/04/03 04:23:54;;;;;;;22.67;15.55;;;5.20;99.90;;;;;;5085382;28;20049;-78
2022/04/03 04:26:22;;;;;;;19.13;14.32;;;5.20;99.90;;;;;;5085181;28;20048;-78
2022/04/03 04:28:51;;;;;;;19.55;14.75;;;5.20;99.90;;;;;;5064615;28;20052;-79
2022/04/03 04:31:19;;;;;;;21.15;15.43;;;5.30;99.90;;;;;;5066439;28;20435;-77
2022/04/03 04:33:46;;;;;;;18.95;13.65;;;5.20;99.90;;;;;;5078510;28;20044;-77
2022/04/03 04:36:15;;;;;;;19.88;15.57;;;5.20;99.90;;;;;;5080894;28;20094;-77
2022/04/03 04:38:43;;;;;;;18.10;14.02;;;5.20;99.90;;;;;;5061527;28;20050;-78
2022/04/03 04:41:10;;;;;;;19.33;13.88;;;5.20;99.90;;;;;;5079784;28;20079;-77
2022/04/03 04:43:38;;;;;;;19.73;13.98;;;5.20;99.90;;;;;;5079271;28;20106;-79
2022/04/03 04:46:05;;;;;;;19.63;12.82;;;5.10;99.90;;;;;;5079912;28;20043;-79
2022/04/03 04:48:34;;;;;;;20.23;13.45;;;5.10;99.90;;;;;;5080413;28;20044;-79
2022/04/03 04:51:02;;;;;;;17.52;12.88;;;5.20;99.90;;;;;;5078861;28;20029;-78
2022/04/03 04:53:31;;;;;;;19.63;13.90;;;5.10;99.90;;;;;;5060233;28;20748;-77
2022/04/03 04:55:59;;;;;;;19.38;14.32;;;5.10;99.90;;;;;;5079425;28;20045;-77
2022/04/03 04:58:27;;;;;;;20.33;13.90;;;5.10;99.90;;;;;;5068448;28;20048;-78
2022/04/03 05:00:55;;;;;;;18.50;13.77;;;5.10;99.90;;;;;;5099069;28;20036;-78
2022/04/03 05:03:23;;;;;;;24.90;13.48;;;5.20;99.90;;;;;;5099773;28;20064;-78
2022/04/03 05:05:51;;;;;;;19.38;13.85;;;5.20;99.90;;;;;;5079158;28;20462;-78
2022/04/03 05:08:20;;;;;;;18.42;13.90;;;5.20;99.90;;;;;;5062968;28;20098;-78
2022/04/03 05:10:52;;;;;;;17.05;14.02;;;5.20;99.90;;;;;;5058787;28;20049;-79
2022/04/03 05:13:25;;;;;;;20.73;14.48;;;5.10;99.90;;;;;;5040542;28;20140;-80
2022/04/03 05:15:53;;;;;;;18.63;13.93;;;5.10;99.90;;;;;;5050394;28;20040;-78
2022/04/03 05:18:21;;;;;;;19.00;13.32;;;5.10;99.90;;;;;;5086948;28;20039;-77
2022/04/03 05:20:50;;;;;;;17.52;13.25;;;5.00;99.90;;;;;;5079068;28;20051;-78
2022/04/03 05:23:18;;;;;;;20.75;13.90;;;5.00;99.90;;;;;;5085691;28;20041;-78
2022/04/03 05:25:47;;;;;;;21.95;14.43;;;5.00;99.90;;;;;;5065496;28;20049;-78
2022/04/03 05:28:16;;;;;;;18.65;13.63;;;5.00;99.90;;;;;;5102945;28;20115;-77
2022/04/03 05:30:44;;;;;;;19.15;14.05;;;4.80;99.90;;;;;;5101995;28;20044;-77
2022/04/03 05:33:12;;;;;;;20.48;14.57;;;4.90;99.90;;;;;;5079492;28;20158;-78
2022/04/03 05:35:39;;;;;;;18.02;14.50;;;4.80;99.90;;;;;;5099532;28;20036;-77
2022/04/03 05:38:07;;;;;;;19.83;14.55;;;4.80;99.90;;;;;;5082326;28;20075;-79
2022/04/03 05:40:35;;;;;;;21.00;15.45;;;4.90;99.90;;;;;;5083702;28;20051;-77
2022/04/03 05:43:03;;;;;;;20.48;14.23;;;4.90;99.90;;;;;;5083102;28;20055;-77
2022/04/03 05:45:32;;;;;;;19.27;14.80;;;4.90;99.90;;;;;;5061092;28;20213;-77
2022/04/03 05:48:01;;;;;;;19.25;14.65;;;4.90;99.90;;;;;;5060786;28;20048;-77
2022/04/03 05:50:29;;;;;;;20.65;14.60;;;5.00;99.90;;;;;;5059237;28;20112;-76
2022/04/03 05:52:56;;;;;;;19.90;15.07;;;5.00;99.90;;;;;;5079078;28;20037;-76
2022/04/03 05:55:25;;;;;;;18.00;13.85;;;5.10;99.90;;;;;;5075827;28;20036;-75
2022/04/03 05:57:54;;;;;;;19.20;13.55;;;5.00;99.90;;;;;;5077996;28;20052;-76
2022/04/03 06:00:24;;;;;;;17.42;12.90;;;5.00;99.90;;;;;;5073848;28;20047;-75
2022/04/03 06:02:55;;;;;;;16.80;12.25;;;4.90;99.90;;;;;;5056006;28;20059;-77
2022/04/03 06:05:24;;;;;;;16.52;12.90;;;4.90;99.90;;;;;;5049296;28;20067;-77
2022/04/03 06:07:52;;;;;;;18.02;11.98;;;4.90;99.90;;;;;;5074567;28;20052;-75
2022/04/03 06:10:22;;;;;;;17.67;12.43;;;4.90;99.90;;;;;;5068989;28;20076;-76
2022/04/03 06:12:57;;;;;;;21.17;12.63;;;4.90;99.90;;;;;;5073796;28;20499;-75
2022/04/03 06:15:27;;;;;;;17.45;11.90;;;5.00;99.90;;;;;;5074673;28;20045;-76
2022/04/03 06:17:57;;;;;;;16.13;12.18;;;5.10;99.90;;;;;;5074668;28;20075;-76
2022/04/03 06:20:25;;;;;;;16.55;12.20;;;5.20;99.90;;;;;;5089195;28;20066;-76
2022/04/03 06:22:53;;;;;;;18.27;13.18;;;5.20;99.90;;;;;;5062074;28;20393;-76
2022/04/03 06:25:21;;;;;;;18.27;12.13;;;5.30;99.90;;;;;;5056239;28;20071;-76
2022/04/03 06:27:49;;;;;;;17.58;12.25;;;5.40;99.90;;;;;;5053584;28;20527;-77
2022/04/03 06:30:16;;;;;;;20.95;13.27;;;5.40;99.90;;;;;;5074531;28;20478;-77
2022/04/03 06:32:44;;;;;;;16.52;11.60;;;5.50;99.90;;;;;;5084109;28;20044;-76
2022/04/03 06:35:13;;;;;;;19.65;12.40;;;5.60;99.90;;;;;;5061189;28;20044;-76
2022/04/03 06:37:42;;;;;;;16.98;12.55;;;5.60;99.90;;;;;;5071156;28;20427;-77
2022/04/03 06:40:11;;;;;;;22.95;12.35;;;5.80;99.90;;;;;;5036695;28;20048;-77
2022/04/03 06:42:39;;;;;;;17.42;12.18;;;5.90;99.90;;;;;;5066319;28;20058;-77
2022/04/03 06:45:08;;;;;;;18.67;11.10;;;5.90;99.90;;;;;;5043121;28;20049;-77
2022/04/03 06:47:36;;;;;;;22.17;12.77;;;6.00;99.90;;;;;;5077537;28;20514;-77
2022/04/03 06:50:05;;;;;;;22.17;12.23;;;6.00;99.90;;;;;;5041199;28;20045;-77
2022/04/03 06:52:35;;;;;;;20.33;11.80;;;6.10;99.90;;;;;;5043452;28;20570;-79
2022/04/03 06:55:03;;;;;;;15.73;9.98;;;6.10;99.90;;;;;;5060998;28;20045;-79
2022/04/03 06:57:30;;;;;;;19.90;12.05;;;6.00;99.90;;;;;;5054703;28;20039;-78
2022/04/03 06:59:58;;;;;;;22.73;11.48;;;5.80;99.90;;;;;;5054865;28;20400;-78
2022/04/03 07:02:26;;;;;;;16.95;10.57;;;5.80;99.90;;;;;;5055377;28;20103;-76
2022/04/03 07:04:54;;;;;;;20.08;10.25;;;5.90;99.90;;;;;;5054703;28;20053;-77
2022/04/03 07:07:26;;;;;;;15.40;9.85;;;5.70;99.90;;;;;;5056171;28;20114;-76
2022/04/03 07:09:55;;;;;;;16.80;9.90;;;5.70;99.90;;;;;;5072825;28;20025;-77
2022/04/03 07:12:23;;;;;;;13.75;9.57;;;5.80;99.90;;;;;;5075048;28;20049;-77
2022/04/03 07:14:51;;;;;;;21.15;11.45;;;5.90;99.90;;;;;;5066008;28;20049;-76
2022/04/03 07:17:19;;;;;;;14.45;9.90;;;6.10;99.90;;;;;;5066017;28;20049;-77
2022/04/03 07:19:46;;;;;;;23.08;10.70;;;6.20;99.90;;;;;;5056644;28;20072;-76
2022/04/03 07:22:14;;;;;;;19.35;10.20;;;6.30;99.90;;;;;;5053388;28;20041;-76
2022/04/03 07:24:42;;;;;;;18.23;9.80;;;6.40;99.90;;;;;;5053712;28;20139;-77
2022/04/03 07:27:11;;;;;;;15.45;9.07;;;6.30;99.90;;;;;;5054293;28;20094;-76
2022/04/03 07:29:38;;;;;;;14.57;9.23;;;6.00;99.90;;;;;;5034521;28;20044;-77
2022/04/03 07:32:06;;;;;;;18.13;9.75;;;6.10;99.90;;;;;;5034632;28;20038;-76
2022/04/03 07:34:37;;;;;;;17.45;9.52;;;6.20;99.90;;;;;;5066771;28;20110;-76
2022/04/03 07:37:05;;;;;;;18.73;10.52;;;6.10;99.90;;;;;;5057936;28;20052;-77
2022/04/03 07:39:32;;;;;;;13.00;9.00;;;6.20;99.90;;;;;;5055484;28;20072;-77
2022/04/03 07:42:02;;;;;;;14.80;9.30;;;6.30;99.90;;;;;;5069466;28;20067;-76
2022/04/03 07:44:31;;;;;;;16.40;9.27;;;6.30;99.90;;;;;;5076236;28;20044;-77
2022/04/03 07:46:59;;;;;;;16.15;9.60;;;6.40;99.90;;;;;;5059727;28;20114;-77
2022/04/03 07:49:27;;;;;;;15.80;9.15;;;6.50;99.90;;;;;;5078231;28;20115;-77
2022/04/03 07:51:55;;;;;;;14.63;9.75;;;6.90;99.90;;;;;;5093277;28;20049;-77
2022/04/03 07:54:23;;;;;;;14.18;8.70;;;6.90;99.90;;;;;;5059338;28;20068;-77
2022/04/03 07:56:51;;;;;;;15.20;8.98;;;6.70;99.90;;;;;;5077831;28;20408;-77
2022/04/03 07:59:18;;;;;;;16.15;9.10;;;6.80;99.90;;;;;;5078315;28;20508;-77
2022/04/03 08:01:47;;;;;;;18.33;8.80;;;6.90;99.90;;;;;;5059991;28;20048;-77
2022/04/03 08:04:16;;;;;;;14.95;9.30;;;6.70;99.90;;;;;;5060086;28;20059;-77
2022/04/03 08:06:44;;;;;;;13.23;8.77;;;6.60;99.90;;;;;;5093230;28;20037;-77
2022/04/03 08:09:12;;;;;;;19.08;9.55;;;6.60;99.90;;;;;;5076050;28;20109;-76
2022/04/03 08:11:42;;;;;;;20.98;9.85;;;6.30;99.90;;;;;;5092340;28;20067;-76
2022/04/03 08:14:10;;;;;;;17.70;10.00;;;6.40;99.90;;;;;;5072647;28;20408;-76
2022/04/03 08:16:37;;;;;;;16.73;10.00;;;6.40;99.90;;;;;;5060114;28;20041;-76
2022/04/03 08:19:06;;;;;;;19.73;9.50;;;6.50;99.90;;;;;;5059837;28;20102;-77
2022/04/03 08:21:34;;;;;;;12.57;9.00;;;6.60;99.90;;;;;;5059518;28;20041;-75
2022/04/03 08:24:02;;;;;;;22.05;9.82;;;6.60;99.90;;;;;;5058642;28;20048;-76
2022/04/03 08:26:29;;;;;;;20.95;9.15;;;6.70;99.90;;;;;;5059287;28;20379;-76
2022/04/03 08:28:57;;;;;;;13.63;8.25;;;6.70;99.90;;;;;;5058363;28;20064;-75
2022/04/03 08:31:27;;;;;;;17.48;8.02;;;6.70;99.90;;;;;;5076513;28;20419;-75
2022/04/03 08:33:55;;;;;;;12.82;8.70;;;6.80;99.90;;;;;;5058577;28;20528;-74
2022/04/03 08:36:25;;;;;;;18.02;9.90;;;6.80;99.90;;;;;;5077006;28;20167;-75
2022/04/03 08:38:52;;;;;;;14.98;9.00;;;6.80;99.90;;;;;;5076134;28;20080;-75
2022/04/03 08:41:21;;;;;;;18.65;10.77;;;6.80;99.90;;;;;;5075799;28;20136;-74
2022/04/03 08:43:49;;;;;;;15.18;9.98;;;6.80;99.90;;;;;;5075052;28;20394;-75
2022/04/03 08:46:18;;;;;;;16.02;9.15;;;6.80;99.90;;;;;;5058272;28;20389;-74
2022/04/03 08:48:46;;;;;;;29.25;11.45;;;7.00;99.90;;;;;;5076026;28;20039;-75
2022/04/03 08:51:16;;;;;;;18.38;12.65;;;7.00;99.90;;;;;;5057883;28;20049;-74
2022/04/03 08:53:47;;;;;;;22.02;11.20;;;7.20;99.90;;;;;;5075975;28;20071;-73
2022/04/03 08:56:14;;;;;;;14.63;8.75;;;7.30;99.90;;;;;;5057873;28;20052;-74
2022/04/03 08:58:42;;;;;;;16.75;9.32;;;7.30;99.90;;;;;;5058469;28;20045;-73
2022/04/03 09:01:11;;;;;;;19.38;10.93;;;7.20;99.90;;;;;;5076158;28;20548;-75
2022/04/03 09:03:39;;;;;;;18.13;10.38;;;7.30;99.90;;;;;;5079707;28;20064;-75
2022/04/03 09:06:14;;;;;;;19.45;10.77;;;7.30;99.90;;;;;;5086702;28;20043;-73
2022/04/03 09:08:42;;;;;;;17.45;9.65;;;7.30;99.90;;;;;;5085484;28;20041;-74
2022/04/03 09:11:14;;;;;;;16.92;8.65;;;7.40;99.90;;;;;;5058854;28;20060;-75
2022/04/03 09:13:45;;;;;;;18.85;8.93;;;7.40;99.90;;;;;;5076413;28;20512;-74
2022/04/03 09:16:13;;;;;;;14.38;8.43;;;7.30;99.90;;;;;;5049920;28;20121;-74
2022/04/03 09:18:49;;;;;;;20.92;11.75;;;7.40;99.90;;;;;;5057922;28;20591;-74
2022/04/03 09:21:19;;;;;;;18.20;10.00;;;7.40;99.90;;;;;;5092778;28;20048;-74
2022/04/03 09:24:02;;;;;;;24.08;13.80;;;7.50;99.90;;;;;;5080837;28;20049;-75
2022/04/03 09:26:33;;;;;;;18.65;11.63;;;7.50;99.90;;;;;;5066379;28;20044;-74
2022/04/03 09:29:12;;;;;;;21.38;12.23;;;7.60;99.90;;;;;;5083201;28;20045;-74
2022/04/03 09:31:40;;;;;;;17.10;10.55;;;7.60;99.90;;;;;;5058411;28;20041;-74
2022/04/03 09:34:14;;;;;;;22.48;11.30;;;7.50;99.90;;;;;;5038069;28;20098;-73
2022/04/03 09:36:42;;;;;;;15.75;10.13;;;7.30;99.90;;;;;;5055958;28;20497;-74
2022/04/03 09:39:12;;;;;;;16.63;9.48;;;7.10;99.90;;;;;;5055446;28;20053;-75
2022/04/03 09:42:00;;;;;;;25.50;9.82;;;7.00;99.90;;;;;;5055290;28;20060;-72
2022/04/03 09:44:33;;;;;;;12.80;8.07;;;7.10;99.90;;;;;;5058232;28;20087;-73
2022/04/03 09:47:14;;;;;;;13.48;9.18;;;7.20;99.90;;;;;;5075268;28;20451;-74
2022/04/03 09:49:45;;;;;;;13.65;9.30;;;7.00;99.90;;;;;;5073984;28;20094;-74
2022/04/03 09:52:13;;;;;;;24.00;9.50;;;6.90;99.90;;;;;;5074794;28;20043;-73
2022/04/03 09:54:41;;;;;;;15.23;9.23;;;6.90;99.90;;;;;;5074264;28;20048;-74
2022/04/03 09:57:23;;;;;;;26.13;9.63;;;7.00;99.90;;;;;;5074560;28;20044;-73
2022/04/03 09:59:54;;;;;;;15.40;9.15;;;7.00;99.90;;;;;;5075877;28;20486;-72
2022/04/03 10:02:23;;;;;;;21.70;8.55;;;6.80;99.90;;;;;;5074287;28;20039;-73
2022/04/03 10:04:53;;;;;;;12.63;8.70;;;6.70;99.90;;;;;;5074112;28;20032;-74
2022/04/03 10:07:22;;;;;;;20.23;11.80;;;6.60;99.90;;;;;;5075391;28;20059;-74
2022/04/03 10:09:52;;;;;;;15.82;8.68;;;6.50;99.90;;;;;;5076366;28;20040;-73
2022/04/03 10:12:23;;;;;;;17.42;10.05;;;6.70;99.90;;;;;;5074769;28;20072;-74
2022/04/03 10:14:52;;;;;;;15.02;9.48;;;6.90;99.90;;;;;;5056443;28;20048;-76
2022/04/03 10:17:21;;;;;;;19.85;10.82;;;7.10;99.90;;;;;;5057002;28;20135;-76
2022/04/03 10:19:51;;;;;;;14.63;8.90;;;7.20;99.90;;;;;;5056237;28;20106;-76
2022/04/03 10:22:26;;;;;;;11.63;8.48;;;7.30;99.90;;;;;;5074452;28;20045;-77
2022/04/03 10:24:58;;;;;;;14.90;9.23;;;7.60;99.90;;;;;;5056770;28;20048;-76
2022/04/03 10:27:31;;;;;;;14.05;8.63;;;7.90;99.90;;;;;;5090789;28;20518;-76
2022/04/03 10:30:00;;;;;;;12.60;7.72;;;8.00;99.90;;;;;;5057045;28;20048;-75
2022/04/03 10:32:30;;;;;;;11.88;8.05;;;7.90;99.90;;;;;;5081939;28;20044;-76
2022/04/03 10:34:59;;;;;;;16.38;10.02;;;8.00;99.90;;;;;;5085748;28;20147;-76
2022/04/03 10:37:38;;;;;;;13.63;8.48;;;8.20;99.90;;;;;;5070657;28;20504;-75
2022/04/03 10:40:08;;;;;;;13.18;7.50;;;8.50;99.90;;;;;;5070943;28;20052;-76
2022/04/03 10:42:50;;;;;;;12.00;7.60;;;8.60;99.90;;;;;;5073199;28;20056;-76
2022/04/03 10:45:20;;;;;;;12.75;7.97;;;8.30;99.90;;;;;;5090720;28;20094;-76
2022/04/03 10:47:49;;;;;;;14.80;8.85;;;8.30;99.90;;;;;;5073327;28;20044;-75
2022/04/03 10:50:24;;;;;;;17.30;9.15;;;8.30;99.90;;;;;;5072664;28;20060;-76
2022/04/03 10:52:59;;;;;;;15.93;10.25;;;8.30;99.90;;;;;;5075215;28;20036;-76
2022/04/03 10:55:36;;;;;;;14.83;9.20;;;8.40;99.90;;;;;;5071942;28;20044;-76
2022/04/03 10:58:17;;;;;;;15.70;7.82;;;8.50;99.90;;;;;;5071429;28;20293;-76
2022/04/03 11:00:47;;;;;;;11.55;7.60;;;8.50;99.90;;;;;;5087072;28;20064;-76
2022/04/03 11:03:35;;;;;;;14.68;9.15;;;8.70;99.90;;;;;;5065348;28;20040;-76
2022/04/03 11:06:27;;;;;;;12.18;7.20;;;8.70;99.90;;;;;;5078314;28;20048;-76
2022/04/03 11:09:08;;;;;;;15.70;7.65;;;9.10;99.90;;;;;;5071396;28;20052;-76
2022/04/03 11:11:39;;;;;;;14.88;8.38;;;9.10;99.90;;;;;;5071537;28;20033;-76
2022/04/03 11:14:12;;;;;;;15.60;9.00;;;8.90;99.90;;;;;;5074792;28;20048;-76
2022/04/03 11:16:54;;;;;;;16.48;8.40;;;8.50;99.90;;;;;;5057343;28;20045;-77
2022/04/03 11:19:35;;;;;;;15.10;9.70;;;8.40;99.90;;;;;;5101899;28;20109;-76
2022/04/03 11:22:05;;;;;;;12.55;8.07;;;8.20;99.90;;;;;;5087810;28;20051;-73
2022/04/03 11:24:36;;;;;;;19.00;10.82;;;8.00;99.90;;;;;;5060237;28;20051;-75
2022/04/03 11:27:04;;;;;;;13.10;8.38;;;7.90;99.90;;;;;;5068910;28;20045;-75
2022/04/03 11:29:34;;;;;;;14.32;8.85;;;7.80;99.90;;;;;;5060357;28;20040;-76
2022/04/03 11:32:05;;;;;;;15.10;8.07;;;7.60;99.90;;;;;;5061157;28;20037;-77
2022/04/03 11:34:33;;;;;;;11.50;7.45;;;7.40;99.90;;;;;;5060450;28;20048;-77
2022/04/03 11:37:03;;;;;;;13.55;8.02;;;7.20;99.90;;;;;;5077771;28;20052;-77
2022/04/03 11:39:36;;;;;;;14.60;8.20;;;7.20;99.90;;;;;;5054819;28;20431;-75
2022/04/03 11:42:06;;;;;;;13.70;7.47;;;7.10;99.90;;;;;;5068450;28;20239;-72
2022/04/03 11:44:36;;;;;;;14.43;8.15;;;7.00;99.90;;;;;;5069922;28;20053;-74
2022/04/03 11:47:05;;;;;;;13.68;7.18;;;6.90;99.90;;;;;;5073441;28;20127;-73
2022/04/03 11:49:34;;;;;;;16.17;7.90;;;6.80;99.90;;;;;;5083321;28;20495;-74
2022/04/03 11:52:07;;;;;;;13.45;8.73;;;6.60;99.90;;;;;;5054992;28;20088;-73
2022/04/03 11:54:35;;;;;;;12.75;7.82;;;6.50;99.90;;;;;;5071920;28;20044;-76
2022/04/03 11:57:04;;;;;;;15.27;8.55;;;6.60;99.90;;;;;;5088671;28;20140;-73
2022/04/03 11:59:36;;;;;;;14.93;7.90;;;6.70;99.90;;;;;;5072971;28;20053;-73
2022/04/03 12:02:15;;;;;;;11.95;8.23;;;6.80;99.90;;;;;;5055112;28;20040;-74
2022/04/03 12:04:43;;;;;;;13.45;8.60;;;6.90;99.90;;;;;;5053388;28;20033;-76
2022/04/03 12:07:13;;;;;;;15.02;9.48;;;7.10;99.90;;;;;;5053241;28;20132;-74
2022/04/03 12:09:42;;;;;;;14.48;9.50;;;7.30;99.90;;;;;;5086099;28;20056;-73
2022/04/03 12:12:11;;;;;;;14.02;9.55;;;7.60;99.90;;;;;;5034840;28;20049;-75
2022/04/03 12:14:44;;;;;;;16.42;10.82;;;7.70;99.90;;;;;;5075479;28;20111;-72
2022/04/03 12:17:13;;;;;;;20.10;12.77;;;8.10;99.90;;;;;;5078346;28;20504;-74
2022/04/03 12:19:44;;;;;;;16.42;10.27;;;8.30;99.90;;;;;;5056889;28;20454;-73
2022/04/03 12:22:14;;;;;;;14.70;10.43;;;8.50;99.90;;;;;;5073163;28;20037;-74
2022/04/03 12:24:43;;;;;;;22.20;12.38;;;8.50;99.90;;;;;;5076339;28;20041;-74
2022/04/03 12:27:18;;;;;;;16.60;10.50;;;8.50;99.90;;;;;;5076236;28;20073;-74
2022/04/03 12:29:49;;;;;;;20.02;12.35;;;8.40;99.90;;;;;;5076461;28;20055;-73
2022/04/03 12:32:18;;;;;;;12.65;7.90;;;8.30;99.90;;;;;;5063410;28;20494;-74
2022/04/03 12:34:47;;;;;;;13.85;8.93;;;8.10;99.90;;;;;;5078765;28;20048;-74
2022/04/03 12:37:16;;;;;;;17.75;9.05;;;8.00;99.90;;;;;;5096940;28;20079;-73
2022/04/03 12:39:44;;;;;;;15.27;9.55;;;8.30;99.90;;;;;;5096800;28;20127;-73
2022/04/03 12:42:23;;;;;;;15.65;9.40;;;8.30;99.90;;;;;;5095392;28;20044;-73
2022/04/03 12:44:55;;;;;;;14.38;8.98;;;8.50;99.90;;;;;;5057801;28;20041;-73
2022/04/03 12:47:25;;;;;;;18.77;10.45;;;8.40;99.90;;;;;;5075504;28;20044;-73
2022/04/03 12:50:10;;;;;;;18.60;11.00;;;8.40;99.90;;;;;;5075455;28;20059;-74
2022/04/03 12:52:55;;;;;;;15.93;10.03;;;8.30;99.90;;;;;;5058233;28;20033;-82